TAF Text Data
IDs:
Format:
Raw Decoded Include METAR

Data at: 0156 UTC 29 Nov 2020

KTCL 282338Z 2900/2924 02005KT P6SM OVC250
  FM291500 VRB03KT 6SM BR OVC023
  PROB30 2915/2918 4SM SHRA BR OVC015
  FM291800 VRB03KT 6SM SHRA BR OVC012
  PROB30 2918/2920 2SM TSRA BR OVC009CB
  FM292000 08006KT 4SM SHRA BR OVC007
  PROB30 2920/2923 2SM TSRA BR OVC005CB
  FM292300 10009KT 5SM SHRA BR OVC003
  PROB30 2923/2924 2SM TSRA BR OVC003CB